Time;durP1;ratioP1;P1;durP2;ratioP2;P2;SDS_P1;SDS_P2;PMS_P1;PMS_P2;Temp;Humidity;BMP_temperature;BMP_pressure;BME280_temperature;BME280_humidity;BME280_pressure;Samples;Min_cycle;Max_cycle;Signal;HPM_P1;HPM_P2
2023/05/16 00:00:26;;;;;;;16.80;13.43;;;17.10;99.90;;;;;;5024946;28;20177;-66
2023/05/16 00:02:52;;;;;;;13.93;12.47;;;17.10;99.90;;;;;;5029486;28;20203;-67
2023/05/16 00:05:18;;;;;;;14.97;11.87;;;17.10;99.90;;;;;;5026121;28;20473;-76
2023/05/16 00:07:45;;;;;;;15.83;14.33;;;17.10;99.90;;;;;;5027502;28;20415;-65
2023/05/16 00:10:12;;;;;;;15.37;12.70;;;17.10;99.90;;;;;;5025788;28;20180;-65
2023/05/16 00:12:38;;;;;;;15.97;14.30;;;17.10;99.90;;;;;;5029835;28;20435;-66
2023/05/16 00:15:07;;;;;;;15.20;13.23;;;17.00;99.90;;;;;;5025298;28;20438;-65
2023/05/16 00:17:34;;;;;;;13.87;12.57;;;17.00;99.90;;;;;;5022750;28;20445;-65
2023/05/16 00:20:07;;;;;;;13.93;12.53;;;17.00;99.90;;;;;;5028186;28;20458;-65
2023/05/16 00:22:33;;;;;;;14.80;13.30;;;17.00;99.90;;;;;;5020038;28;20435;-65
2023/05/16 00:24:58;;;;;;;14.23;12.90;;;17.00;99.90;;;;;;5032484;28;20465;-66
2023/05/16 00:27:24;;;;;;;14.80;13.17;;;17.10;99.90;;;;;;5030051;28;20180;-66
2023/05/16 00:29:50;;;;;;;14.00;12.70;;;17.00;99.90;;;;;;5022828;28;20204;-65
2023/05/16 00:32:16;;;;;;;14.97;13.37;;;17.00;99.90;;;;;;5026964;28;20623;-65
2023/05/16 00:34:42;;;;;;;14.80;13.33;;;17.00;99.90;;;;;;5023837;28;20550;-66
2023/05/16 00:37:07;;;;;;;14.77;13.37;;;17.00;99.90;;;;;;5025718;28;20435;-66
2023/05/16 00:39:33;;;;;;;15.97;14.30;;;17.00;99.90;;;;;;5026227;28;20204;-66
2023/05/16 00:41:58;;;;;;;16.13;14.33;;;17.00;99.90;;;;;;5023582;28;20188;-65
2023/05/16 00:44:24;;;;;;;16.63;14.97;;;17.00;99.90;;;;;;5018456;28;20219;-65
2023/05/16 00:46:50;;;;;;;18.17;14.50;;;16.90;99.90;;;;;;5023739;28;20346;-66
2023/05/16 00:49:16;;;;;;;16.90;15.20;;;16.90;99.90;;;;;;5019328;28;20784;-66
2023/05/16 00:51:41;;;;;;;18.50;16.00;;;16.90;99.90;;;;;;5023991;28;20440;-66
2023/05/16 00:54:07;;;;;;;19.27;17.37;;;16.90;99.90;;;;;;5021995;28;20704;-66
2023/05/16 00:56:33;;;;;;;18.30;16.40;;;16.90;99.90;;;;;;5023697;28;20180;-66
2023/05/16 00:58:59;;;;;;;18.33;15.57;;;16.90;99.90;;;;;;5051753;28;20539;-66
2023/05/16 01:01:27;;;;;;;20.00;16.50;;;16.90;99.90;;;;;;5028659;28;20269;-66
2023/05/16 01:03:54;;;;;;;19.07;17.07;;;16.90;99.90;;;;;;5031720;28;20172;-66
2023/05/16 01:06:20;;;;;;;21.70;18.83;;;16.80;99.90;;;;;;5025972;28;20927;-66
2023/05/16 01:08:45;;;;;;;22.63;17.80;;;16.80;99.90;;;;;;5032387;28;20470;-65
2023/05/16 01:11:22;;;;;;;20.63;18.50;;;16.80;99.90;;;;;;5023836;28;20430;-66
2023/05/16 01:13:47;;;;;;;21.30;18.67;;;16.80;99.90;;;;;;5019105;28;20172;-65
2023/05/16 01:16:21;;;;;;;20.17;18.03;;;16.70;99.90;;;;;;5024695;28;20553;-66
2023/05/16 01:19:18;;;;;;;23.23;18.70;;;16.70;99.90;;;;;;5018362;28;20263;-66
2023/05/16 01:21:52;;;;;;;20.50;18.30;;;16.70;99.90;;;;;;5013831;28;20533;-65
2023/05/16 01:24:36;;;;;;;24.37;19.27;;;16.70;99.90;;;;;;5022478;28;20440;-65
2023/05/16 01:27:04;;;;;;;21.73;18.90;;;16.70;99.90;;;;;;5018789;28;20493;-67
2023/05/16 01:29:30;;;;;;;23.50;20.27;;;16.70;99.90;;;;;;5015463;28;20542;-67
2023/05/16 01:31:57;;;;;;;25.47;21.63;;;16.70;99.90;;;;;;5021578;28;20752;-66
2023/05/16 01:34:22;;;;;;;23.27;20.00;;;16.70;99.90;;;;;;5015242;28;20436;-66
2023/05/16 01:37:03;;;;;;;24.80;21.20;;;16.60;99.90;;;;;;5016920;28;20436;-66
2023/05/16 01:39:44;;;;;;;24.33;21.10;;;16.60;99.90;;;;;;5017124;28;20294;-66
2023/05/16 01:42:13;;;;;;;23.27;20.77;;;16.60;99.90;;;;;;5023527;28;20442;-66
2023/05/16 01:44:45;;;;;;;25.07;21.93;;;16.60;99.90;;;;;;5021532;28;20517;-65
2023/05/16 01:47:16;;;;;;;25.93;21.70;;;16.60;99.90;;;;;;5020965;28;20497;-66
2023/05/16 01:50:14;;;;;;;28.63;22.00;;;16.50;99.90;;;;;;5013735;28;20455;-66
2023/05/16 01:52:44;;;;;;;30.70;22.97;;;16.50;99.90;;;;;;5014194;28;21112;-66
2023/05/16 01:55:14;;;;;;;25.23;22.53;;;16.50;99.90;;;;;;5021319;28;20439;-66
2023/05/16 01:57:42;;;;;;;29.20;25.10;;;16.50;99.90;;;;;;5028154;28;20888;-67
2023/05/16 02:00:08;;;;;;;28.97;24.30;;;16.50;99.90;;;;;;5026958;28;20470;-67
2023/05/16 02:02:33;;;;;;;26.70;23.17;;;16.50;99.90;;;;;;5027607;28;20435;-66
2023/05/16 02:04:59;;;;;;;31.30;23.07;;;16.50;99.90;;;;;;5030130;28;20462;-66
2023/05/16 02:07:25;;;;;;;28.77;23.43;;;16.50;99.90;;;;;;5022314;28;20242;-66
2023/05/16 02:09:51;;;;;;;26.37;23.30;;;16.50;99.90;;;;;;5022071;28;20208;-66
2023/05/16 02:12:17;;;;;;;28.10;22.60;;;16.50;99.90;;;;;;5022946;28;20423;-66
2023/05/16 02:14:42;;;;;;;32.33;24.23;;;16.50;99.90;;;;;;5024855;28;20639;-66
2023/05/16 02:17:08;;;;;;;26.90;22.10;;;16.50;99.90;;;;;;5028961;28;20363;-66
2023/05/16 02:19:33;;;;;;;27.50;22.10;;;16.50;99.90;;;;;;5023180;28;20271;-66
2023/05/16 02:21:59;;;;;;;26.70;22.70;;;16.50;99.90;;;;;;5021592;28;20308;-66
2023/05/16 02:24:24;;;;;;;27.90;23.03;;;16.40;99.90;;;;;;5018191;28;20247;-66
2023/05/16 02:26:50;;;;;;;27.77;22.97;;;16.40;99.90;;;;;;5019233;28;20408;-66
2023/05/16 02:29:16;;;;;;;26.97;22.30;;;16.40;99.90;;;;;;5022603;28;20283;-66
2023/05/16 02:31:41;;;;;;;29.80;23.87;;;16.40;99.90;;;;;;5021846;28;20204;-66
2023/05/16 02:34:07;;;;;;;31.17;24.30;;;16.30;99.90;;;;;;5016977;28;20187;-66
2023/05/16 02:36:34;;;;;;;28.07;23.20;;;16.30;99.90;;;;;;5014028;28;20193;-66
2023/05/16 02:39:01;;;;;;;28.50;23.10;;;16.30;99.90;;;;;;5016748;28;20483;-66
2023/05/16 02:41:26;;;;;;;29.20;23.47;;;16.30;99.90;;;;;;5015915;28;20764;-66
2023/05/16 02:43:52;;;;;;;28.43;23.73;;;16.30;99.90;;;;;;5020872;28;20431;-66
2023/05/16 02:46:27;;;;;;;31.97;24.00;;;16.30;99.90;;;;;;5019546;28;20220;-66
2023/05/16 02:48:53;;;;;;;27.67;22.33;;;16.20;99.90;;;;;;5018070;28;20212;-66
2023/05/16 02:51:21;;;;;;;32.13;23.00;;;16.20;99.90;;;;;;5014413;28;20490;-66
2023/05/16 02:53:47;;;;;;;27.93;23.30;;;16.20;99.90;;;;;;5023735;28;20512;-66
2023/05/16 02:56:13;;;;;;;30.13;22.73;;;16.20;99.90;;;;;;5008756;28;20925;-66
2023/05/16 02:58:38;;;;;;;31.97;22.97;;;16.10;99.90;;;;;;5017729;28;20211;-66
2023/05/16 03:01:04;;;;;;;26.87;21.73;;;16.10;99.90;;;;;;5014449;28;20193;-66
2023/05/16 03:03:29;;;;;;;33.43;23.23;;;16.00;99.90;;;;;;5016054;28;20197;-66
2023/05/16 03:05:55;;;;;;;26.90;21.30;;;16.00;99.90;;;;;;5017883;28;20294;-66
2023/05/16 03:08:20;;;;;;;29.73;22.03;;;16.00;99.90;;;;;;5015935;28;20204;-66
2023/05/16 03:10:46;;;;;;;28.03;22.60;;;16.00;99.90;;;;;;5014883;28;20282;-65
2023/05/16 03:13:12;;;;;;;28.33;22.20;;;15.90;99.90;;;;;;5021343;28;20181;-66
2023/05/16 03:15:37;;;;;;;26.00;22.87;;;16.00;99.90;;;;;;5018131;28;20884;-66
2023/05/16 03:18:03;;;;;;;28.57;22.17;;;15.90;99.90;;;;;;5020020;28;20219;-67
2023/05/16 03:20:28;;;;;;;26.37;21.73;;;15.90;99.90;;;;;;5024397;28;20211;-66
2023/05/16 03:22:54;;;;;;;27.97;23.37;;;15.90;99.90;;;;;;5023880;28;20185;-66
2023/05/16 03:25:20;;;;;;;29.70;22.47;;;15.80;99.90;;;;;;5027326;28;20200;-66
2023/05/16 03:27:45;;;;;;;29.13;21.90;;;15.80;99.90;;;;;;5018097;28;20210;-66
2023/05/16 03:30:12;;;;;;;30.00;22.80;;;15.80;99.90;;;;;;5021843;28;20234;-66
2023/05/16 03:32:37;;;;;;;26.50;21.80;;;15.80;99.90;;;;;;5028412;28;20211;-66
2023/05/16 03:35:03;;;;;;;27.17;22.10;;;15.80;99.90;;;;;;5037179;28;21547;-66
2023/05/16 03:37:29;;;;;;;29.00;21.37;;;15.70;99.90;;;;;;5023118;28;20189;-66
2023/05/16 03:39:55;;;;;;;26.27;21.43;;;15.70;99.90;;;;;;5029351;28;20514;-67
2023/05/16 03:42:20;;;;;;;26.40;18.93;;;15.80;99.90;;;;;;5018534;28;20223;-67
2023/05/16 03:44:46;;;;;;;26.20;20.07;;;15.80;99.90;;;;;;5020861;28;20208;-67
2023/05/16 03:47:12;;;;;;;28.30;20.20;;;15.80;99.90;;;;;;5030539;28;20256;-67
2023/05/16 03:49:37;;;;;;;23.87;19.83;;;15.70;99.90;;;;;;5020385;28;20682;-67
2023/05/16 03:52:04;;;;;;;27.80;20.20;;;15.70;99.90;;;;;;5021698;28;20200;-67
2023/05/16 03:54:30;;;;;;;25.30;19.60;;;15.70;99.90;;;;;;5018655;28;20177;-67
2023/05/16 03:56:56;;;;;;;25.03;19.60;;;15.60;99.90;;;;;;5019125;28;20525;-67
2023/05/16 03:59:21;;;;;;;28.50;20.20;;;15.60;99.90;;;;;;5022350;28;20999;-64
2023/05/16 04:01:47;;;;;;;30.10;19.40;;;15.50;99.90;;;;;;5021918;28;20184;-64
2023/05/16 04:04:13;;;;;;;25.87;18.57;;;15.60;99.90;;;;;;5022537;28;20211;-67
2023/05/16 04:06:39;;;;;;;29.40;19.53;;;15.50;99.90;;;;;;5024741;28;20472;-67
2023/05/16 04:09:08;;;;;;;25.80;18.47;;;15.50;99.90;;;;;;5014096;28;20196;-67
2023/05/16 04:11:34;;;;;;;30.30;18.70;;;15.50;99.90;;;;;;5017800;28;20487;-67
2023/05/16 04:14:00;;;;;;;23.17;17.80;;;15.60;99.90;;;;;;5019318;28;20426;-67
2023/05/16 04:16:26;;;;;;;25.33;18.80;;;15.60;99.90;;;;;;5026613;28;20561;-67
2023/05/16 04:18:52;;;;;;;23.47;17.17;;;15.50;99.90;;;;;;5027604;28;20464;-67
2023/05/16 04:21:17;;;;;;;22.73;18.30;;;15.50;99.90;;;;;;5016577;28;20596;-67
2023/05/16 04:23:43;;;;;;;22.70;18.40;;;15.40;99.90;;;;;;5021692;28;20270;-67
2023/05/16 04:26:08;;;;;;;26.40;20.50;;;15.40;99.90;;;;;;5018625;28;20216;-67
2023/05/16 04:28:34;;;;;;;24.10;17.07;;;15.40;99.90;;;;;;5022699;28;20212;-67
2023/05/16 04:31:00;;;;;;;22.00;17.00;;;15.40;99.90;;;;;;5026130;28;20224;-67
2023/05/16 04:33:26;;;;;;;24.83;16.80;;;15.40;99.90;;;;;;5023130;28;20873;-67
2023/05/16 04:35:53;;;;;;;30.47;18.30;;;15.40;99.90;;;;;;5024890;28;20439;-66
2023/05/16 04:38:19;;;;;;;24.27;17.53;;;15.40;99.90;;;;;;5019239;28;20207;-66
2023/05/16 04:40:45;;;;;;;26.53;17.40;;;15.40;99.90;;;;;;5017857;28;20559;-67
2023/05/16 04:43:11;;;;;;;21.60;16.23;;;15.40;99.90;;;;;;5022614;28;20431;-66
2023/05/16 04:45:36;;;;;;;25.10;18.70;;;15.40;99.90;;;;;;5028334;28;21300;-66
2023/05/16 04:48:02;;;;;;;23.00;17.87;;;15.30;99.90;;;;;;5021739;28;20270;-66
2023/05/16 04:50:28;;;;;;;22.70;17.37;;;15.30;99.90;;;;;;5026615;28;20183;-66
2023/05/16 04:52:53;;;;;;;21.73;16.43;;;15.30;99.90;;;;;;5022585;28;20438;-66
2023/05/16 04:55:19;;;;;;;21.40;17.17;;;15.30;99.90;;;;;;5021730;28;20185;-66
2023/05/16 04:57:45;;;;;;;24.40;17.30;;;15.20;99.90;;;;;;5029234;28;20188;-66
2023/05/16 05:00:12;;;;;;;24.70;17.60;;;15.30;99.90;;;;;;5033437;28;20181;-66
2023/05/16 05:02:38;;;;;;;26.77;17.67;;;15.30;99.90;;;;;;5026633;28;20910;-66
2023/05/16 05:05:04;;;;;;;21.17;16.30;;;15.30;99.90;;;;;;5028000;28;20469;-66
2023/05/16 05:07:31;;;;;;;25.23;17.73;;;15.30;99.90;;;;;;5024219;28;20956;-66
2023/05/16 05:09:57;;;;;;;20.90;15.27;;;15.30;99.90;;;;;;5018629;28;20460;-66
2023/05/16 05:12:23;;;;;;;20.77;17.00;;;15.40;99.90;;;;;;5021101;28;20424;-66
2023/05/16 05:14:48;;;;;;;23.77;15.90;;;15.30;99.90;;;;;;5025987;28;20195;-66
2023/05/16 05:17:15;;;;;;;24.30;17.23;;;15.40;99.90;;;;;;5030420;28;20697;-66
2023/05/16 05:19:40;;;;;;;23.23;15.97;;;15.30;99.90;;;;;;5028400;28;20259;-66
2023/05/16 05:22:06;;;;;;;18.60;14.87;;;15.30;99.90;;;;;;5023996;28;20957;-66
2023/05/16 05:24:31;;;;;;;19.93;15.40;;;15.30;99.90;;;;;;5024818;28;20885;-66
2023/05/16 05:26:57;;;;;;;21.57;16.20;;;15.40;99.90;;;;;;5025918;28;20204;-66
2023/05/16 05:29:22;;;;;;;24.43;16.13;;;15.30;99.90;;;;;;5019368;28;20204;-66
2023/05/16 05:31:48;;;;;;;22.93;16.87;;;15.30;99.90;;;;;;5018506;28;20196;-66
2023/05/16 05:34:13;;;;;;;20.60;15.40;;;15.30;99.90;;;;;;5019964;28;20188;-66
2023/05/16 05:36:39;;;;;;;20.90;14.90;;;15.30;99.90;;;;;;5022751;28;20216;-66
2023/05/16 05:39:05;;;;;;;26.13;16.43;;;15.20;99.90;;;;;;5020221;28;20576;-66
2023/05/16 05:41:30;;;;;;;20.20;14.90;;;15.30;99.90;;;;;;5015844;28;20188;-66
2023/05/16 05:43:56;;;;;;;20.03;14.57;;;15.30;99.90;;;;;;5028540;28;20181;-66
2023/05/16 05:46:23;;;;;;;17.03;12.97;;;15.30;99.90;;;;;;5025151;28;20207;-66
2023/05/16 05:48:48;;;;;;;23.93;14.77;;;15.30;99.90;;;;;;5013838;28;20231;-66
2023/05/16 05:51:14;;;;;;;22.60;15.47;;;15.30;99.90;;;;;;5012095;28;20465;-66
2023/05/16 05:53:40;;;;;;;21.87;15.63;;;15.40;99.90;;;;;;5029182;28;20205;-66
2023/05/16 05:56:06;;;;;;;20.37;14.43;;;15.40;99.90;;;;;;5023997;28;20180;-66
2023/05/16 05:58:32;;;;;;;21.07;14.27;;;15.40;99.90;;;;;;5019728;28;20532;-66
2023/05/16 06:00:57;;;;;;;18.40;14.30;;;15.40;99.90;;;;;;5021032;28;20599;-66
2023/05/16 06:03:23;;;;;;;19.33;14.10;;;15.40;99.90;;;;;;5017001;28;20646;-66
2023/05/16 06:05:48;;;;;;;20.07;13.30;;;15.40;99.90;;;;;;5022702;28;20207;-66
2023/05/16 06:08:21;;;;;;;20.30;13.60;;;15.40;99.90;;;;;;5019184;28;20203;-65
2023/05/16 06:10:46;;;;;;;19.03;14.03;;;15.50;99.90;;;;;;5019868;28;20195;-66
2023/05/16 06:13:12;;;;;;;16.13;11.90;;;15.40;99.90;;;;;;5027859;28;20406;-65
2023/05/16 06:15:38;;;;;;;16.03;12.00;;;15.50;99.90;;;;;;5011916;28;20223;-65
2023/05/16 06:18:03;;;;;;;16.33;11.53;;;15.60;99.90;;;;;;5021241;28;20205;-65
2023/05/16 06:20:29;;;;;;;14.43;10.63;;;15.60;99.90;;;;;;5024131;28;20547;-65
2023/05/16 06:22:55;;;;;;;16.13;11.17;;;15.70;99.90;;;;;;5024298;28;20558;-65
2023/05/16 06:25:20;;;;;;;15.93;9.70;;;15.70;99.90;;;;;;5024002;28;20717;-65
2023/05/16 06:27:46;;;;;;;11.73;8.43;;;15.80;99.90;;;;;;5019446;28;20454;-65
2023/05/16 06:30:12;;;;;;;11.80;8.67;;;15.80;99.90;;;;;;5031996;28;20191;-65
2023/05/16 06:32:39;;;;;;;10.73;7.70;;;15.80;99.90;;;;;;5019694;28;20204;-65
2023/05/16 06:35:05;;;;;;;10.10;7.60;;;15.70;99.90;;;;;;5019728;28;21004;-65
2023/05/16 06:37:31;;;;;;;15.20;8.30;;;15.80;99.90;;;;;;5018697;28;21061;-65
2023/05/16 06:39:58;;;;;;;8.97;6.80;;;15.70;99.90;;;;;;5025555;28;20435;-65
2023/05/16 06:42:23;;;;;;;18.33;13.03;;;15.70;99.90;;;;;;5024760;28;20181;-65
2023/05/16 06:44:49;;;;;;;10.27;8.03;;;15.70;99.90;;;;;;5025631;28;20527;-65
2023/05/16 06:47:15;;;;;;;18.83;14.27;;;15.60;99.90;;;;;;5016693;28;20184;-66
2023/05/16 06:49:41;;;;;;;8.03;6.57;;;15.60;99.90;;;;;;5020982;28;20882;-66
2023/05/16 06:52:06;;;;;;;9.67;6.90;;;15.60;99.90;;;;;;5022030;28;20259;-65
2023/05/16 06:54:32;;;;;;;8.50;5.90;;;15.70;99.90;;;;;;5011731;28;20188;-65
2023/05/16 06:56:57;;;;;;;7.80;6.23;;;15.60;99.90;;;;;;5021879;28;20192;-66
2023/05/16 06:59:23;;;;;;;7.23;5.20;;;15.60;99.90;;;;;;5026682;28;20275;-65
2023/05/16 07:01:49;;;;;;;10.17;5.13;;;15.70;99.90;;;;;;5024590;28;20859;-65
2023/05/16 07:04:15;;;;;;;6.53;5.27;;;15.70;99.90;;;;;;5013148;28;20184;-66
2023/05/16 07:06:40;;;;;;;9.50;5.30;;;15.70;99.90;;;;;;5026006;28;20212;-66
2023/05/16 07:09:06;;;;;;;6.00;3.93;;;15.70;99.90;;;;;;5016836;28;20458;-67
2023/05/16 07:11:31;;;;;;;6.10;5.00;;;15.70;99.90;;;;;;5013229;28;20226;-66
2023/05/16 07:13:57;;;;;;;3.97;3.43;;;15.60;99.90;;;;;;5011219;28;20575;-65
2023/05/16 07:16:23;;;;;;;3.90;3.50;;;15.70;99.90;;;;;;5009930;28;20193;-66
2023/05/16 07:18:49;;;;;;;5.23;3.67;;;15.70;99.90;;;;;;5013138;28;20216;-66
2023/05/16 07:21:14;;;;;;;4.53;3.50;;;15.70;99.90;;;;;;5015332;28;20210;-71
2023/05/16 07:23:40;;;;;;;3.10;2.80;;;15.80;99.90;;;;;;5021058;28;20184;-67
2023/05/16 07:26:06;;;;;;;3.60;2.70;;;15.80;99.90;;;;;;5021504;28;20208;-67
2023/05/16 07:28:31;;;;;;;7.63;2.83;;;15.80;99.90;;;;;;5020377;28;20208;-67
2023/05/16 07:31:00;;;;;;;3.50;2.63;;;15.90;99.90;;;;;;5019484;28;20181;-65
2023/05/16 07:33:26;;;;;;;3.17;2.87;;;16.00;99.90;;;;;;5008077;28;20192;-65
2023/05/16 07:35:52;;;;;;;2.57;2.20;;;16.10;99.90;;;;;;5011608;28;20859;-67
2023/05/16 07:38:20;;;;;;;4.77;3.13;;;16.20;99.90;;;;;;5018598;28;20576;-66
2023/05/16 07:40:46;;;;;;;2.83;2.50;;;16.30;99.90;;;;;;5017656;28;20457;-67
2023/05/16 07:43:11;;;;;;;3.73;2.40;;;16.20;99.90;;;;;;5012008;28;20932;-67
2023/05/16 07:45:37;;;;;;;2.40;2.20;;;16.30;99.90;;;;;;5013090;28;20219;-65
2023/05/16 07:48:03;;;;;;;3.27;2.40;;;16.40;99.90;;;;;;5020962;28;20208;-67
2023/05/16 07:50:28;;;;;;;2.50;2.20;;;16.40;99.90;;;;;;5023705;28;20231;-66
2023/05/16 07:52:54;;;;;;;2.90;2.50;;;16.30;99.90;;;;;;5015284;28;20189;-67
2023/05/16 07:55:21;;;;;;;2.80;2.47;;;16.30;99.90;;;;;;5014296;28;20204;-67
2023/05/16 07:57:47;;;;;;;2.80;2.30;;;16.40;99.90;;;;;;5007696;28;20280;-67
2023/05/16 08:00:13;;;;;;;3.70;2.50;;;16.30;99.90;;;;;;5013713;28;20508;-67
2023/05/16 08:02:39;;;;;;;2.63;2.10;;;16.30;99.90;;;;;;5013678;28;20436;-67
2023/05/16 08:05:05;;;;;;;3.43;2.20;;;16.40;99.90;;;;;;5027351;28;20881;-67
2023/05/16 08:07:31;;;;;;;2.80;2.40;;;16.40;99.90;;;;;;5014378;28;20199;-66
2023/05/16 08:09:56;;;;;;;2.30;2.10;;;16.40;99.90;;;;;;5020053;28;20550;-67
2023/05/16 08:12:23;;;;;;;3.80;2.10;;;16.40;99.90;;;;;;5018037;28;20272;-67
2023/05/16 08:14:49;;;;;;;3.10;2.60;;;16.50;99.90;;;;;;5013978;28;20189;-66
2023/05/16 08:17:14;;;;;;;2.53;2.10;;;16.40;99.90;;;;;;5025284;28;20442;-66
2023/05/16 08:19:40;;;;;;;2.53;2.30;;;16.30;99.90;;;;;;5019370;28;20213;-67
2023/05/16 08:22:07;;;;;;;3.10;2.40;;;16.30;99.90;;;;;;5018173;28;20208;-66
2023/05/16 08:24:33;;;;;;;3.10;2.33;;;16.20;99.90;;;;;;5024311;28;20230;-67
2023/05/16 08:26:59;;;;;;;2.70;2.30;;;16.20;99.90;;;;;;5018375;28;20443;-66
2023/05/16 08:29:25;;;;;;;3.40;2.13;;;16.20;99.90;;;;;;5020591;28;20310;-67
2023/05/16 08:31:51;;;;;;;2.50;2.27;;;16.20;99.90;;;;;;5024225;28;20184;-66
2023/05/16 08:34:16;;;;;;;2.50;2.30;;;16.20;99.90;;;;;;5021463;28;20900;-67
2023/05/16 08:36:42;;;;;;;2.40;2.20;;;16.10;99.90;;;;;;5028128;28;20659;-67
2023/05/16 08:39:10;;;;;;;2.87;2.33;;;16.10;99.90;;;;;;5019981;28;20756;-70
2023/05/16 08:41:36;;;;;;;4.23;2.30;;;16.10;99.90;;;;;;5029105;28;20222;-67
2023/05/16 08:44:02;;;;;;;3.30;2.10;;;16.00;99.90;;;;;;5025350;28;20493;-67
2023/05/16 08:46:28;;;;;;;5.80;2.50;;;16.10;99.90;;;;;;5026285;28;20248;-67
2023/05/16 08:48:58;;;;;;;2.83;2.33;;;16.10;99.90;;;;;;5029109;28;20453;-67
2023/05/16 08:51:24;;;;;;;3.30;2.30;;;16.10;99.90;;;;;;5026548;28;20447;-66
2023/05/16 08:53:58;;;;;;;2.50;2.30;;;16.10;99.90;;;;;;5028164;28;20410;-66
2023/05/16 08:56:24;;;;;;;3.20;2.60;;;16.10;99.90;;;;;;5021206;28;20435;-67
2023/05/16 08:58:53;;;;;;;2.80;2.40;;;16.10;99.90;;;;;;5029996;28;20443;-67
2023/05/16 09:01:20;;;;;;;2.90;2.30;;;16.10;99.90;;;;;;5025001;28;20443;-67
2023/05/16 09:03:47;;;;;;;2.90;2.50;;;16.10;99.90;;;;;;5019578;28;20423;-67
2023/05/16 09:06:12;;;;;;;3.63;2.40;;;16.10;99.90;;;;;;5029498;28;20477;-67
2023/05/16 09:08:38;;;;;;;4.77;3.57;;;16.10;99.90;;;;;;5030870;28;20463;-67
2023/05/16 09:11:03;;;;;;;2.87;2.50;;;16.20;99.90;;;;;;5025695;28;20184;-67
2023/05/16 09:13:29;;;;;;;3.00;2.70;;;16.10;99.90;;;;;;5027588;28;20692;-67
2023/05/16 09:16:15;;;;;;;4.00;2.70;;;16.10;99.90;;;;;;5024709;28;20185;-67
2023/05/16 09:18:43;;;;;;;2.43;2.20;;;16.20;99.90;;;;;;5022000;28;20211;-68
2023/05/16 09:21:10;;;;;;;2.63;2.43;;;16.20;99.90;;;;;;5028508;28;20446;-67
2023/05/16 09:23:36;;;;;;;4.30;2.33;;;16.10;99.90;;;;;;5029355;28;20480;-67
2023/05/16 09:26:04;;;;;;;3.27;2.70;;;16.20;99.90;;;;;;5027705;28;20490;-67
2023/05/16 09:28:30;;;;;;;3.80;2.63;;;16.20;99.90;;;;;;5029768;28;20351;-67
2023/05/16 09:30:58;;;;;;;4.63;2.70;;;16.10;99.90;;;;;;5029111;28;20430;-68
2023/05/16 09:33:27;;;;;;;2.70;2.40;;;16.20;99.90;;;;;;5030337;28;20927;-65
2023/05/16 09:36:00;;;;;;;3.90;2.60;;;16.10;99.90;;;;;;5027079;28;20427;-68
2023/05/16 09:38:27;;;;;;;3.10;2.63;;;16.00;99.90;;;;;;5024245;28;21228;-67
2023/05/16 09:40:53;;;;;;;3.47;2.20;;;16.00;99.90;;;;;;5029941;28;20435;-65
2023/05/16 09:43:24;;;;;;;3.80;2.53;;;15.90;99.90;;;;;;5027615;28;20420;-67
2023/05/16 09:45:50;;;;;;;2.63;2.43;;;15.80;99.90;;;;;;5028257;28;20861;-68
2023/05/16 09:48:16;;;;;;;3.43;2.43;;;15.90;99.90;;;;;;5028644;28;20550;-68
2023/05/16 09:50:48;;;;;;;5.53;2.63;;;15.90;99.90;;;;;;5026578;28;20465;-67
2023/05/16 09:53:14;;;;;;;4.70;2.37;;;16.10;99.90;;;;;;5019998;28;20446;-67
2023/05/16 09:55:39;;;;;;;2.93;2.20;;;16.20;99.90;;;;;;5025869;28;20506;-67
2023/05/16 09:58:05;;;;;;;3.30;2.03;;;16.50;99.90;;;;;;5028850;28;20207;-67
2023/05/16 10:00:32;;;;;;;2.50;2.30;;;16.60;99.90;;;;;;5027800;28;20196;-68
2023/05/16 10:03:00;;;;;;;2.50;2.17;;;16.80;99.90;;;;;;5020810;28;20181;-68
2023/05/16 10:05:26;;;;;;;2.70;2.50;;;17.10;99.90;;;;;;5027544;28;20466;-68
2023/05/16 10:07:55;;;;;;;2.93;2.63;;;17.40;99.90;;;;;;5017742;28;21029;-68
2023/05/16 10:10:21;;;;;;;2.73;2.20;;;17.50;99.90;;;;;;5015541;28;20927;-68
2023/05/16 10:12:47;;;;;;;2.83;2.53;;;17.60;99.90;;;;;;5018835;28;20545;-67
2023/05/16 10:15:14;;;;;;;3.73;2.10;;;17.70;99.90;;;;;;5024038;28;20445;-67
2023/05/16 10:17:44;;;;;;;2.97;2.67;;;17.90;99.90;;;;;;5024023;28;20648;-68
2023/05/16 10:20:11;;;;;;;2.57;2.37;;;18.10;99.90;;;;;;5025757;28;20442;-67
2023/05/16 10:22:41;;;;;;;3.20;2.47;;;18.10;99.90;;;;;;5018410;28;20959;-68
2023/05/16 10:25:16;;;;;;;6.80;2.70;;;18.10;99.90;;;;;;5021982;28;20860;-68
2023/05/16 10:27:42;;;;;;;2.50;2.30;;;18.00;99.90;;;;;;5021446;28;20438;-65
2023/05/16 10:30:09;;;;;;;3.73;2.50;;;17.90;99.90;;;;;;5025121;28;20451;-66
2023/05/16 10:32:36;;;;;;;3.00;2.00;;;17.80;99.90;;;;;;5018152;28;20458;-66
2023/05/16 10:35:03;;;;;;;2.30;2.10;;;17.70;99.90;;;;;;5025968;28;20436;-66
2023/05/16 10:37:30;;;;;;;2.20;1.90;;;17.60;99.90;;;;;;5020861;28;20446;-66
2023/05/16 10:39:58;;;;;;;2.03;1.80;;;17.60;99.90;;;;;;5023534;28;20474;-66
2023/05/16 10:42:24;;;;;;;2.37;2.10;;;17.60;99.90;;;;;;5025213;28;20562;-66
2023/05/16 10:44:55;;;;;;;3.20;2.13;;;17.50;99.90;;;;;;5026408;28;20560;-66
2023/05/16 10:47:21;;;;;;;3.43;2.10;;;17.40;99.90;;;;;;5022857;28;20266;-66
2023/05/16 10:49:46;;;;;;;2.30;2.00;;;17.50;99.90;;;;;;5022625;28;20443;-66
2023/05/16 10:52:14;;;;;;;2.77;2.57;;;17.50;99.90;;;;;;5016846;28;20497;-66
2023/05/16 10:54:50;;;;;;;2.03;1.80;;;17.30;99.90;;;;;;5025495;28;20177;-66
2023/05/16 10:57:19;;;;;;;2.87;1.83;;;17.10;99.90;;;;;;5018087;28;20846;-66
2023/05/16 10:59:46;;;;;;;2.13;1.80;;;17.10;99.90;;;;;;5027990;28;20466;-67
2023/05/16 11:02:29;;;;;;;1.90;1.70;;;17.00;99.90;;;;;;5015008;28;20431;-67
2023/05/16 11:04:58;;;;;;;3.13;1.83;;;16.90;99.90;;;;;;5017340;28;20470;-67
2023/05/16 11:07:25;;;;;;;2.27;1.80;;;16.70;99.90;;;;;;5024898;28;20515;-67
2023/05/16 11:10:05;;;;;;;2.70;1.70;;;16.50;99.90;;;;;;5025245;28;20451;-66
2023/05/16 11:12:45;;;;;;;2.20;1.90;;;16.50;99.90;;;;;;5020847;28;20935;-66
2023/05/16 11:15:27;;;;;;;2.20;1.70;;;16.40;99.90;;;;;;5020753;28;21829;-67
2023/05/16 11:18:12;;;;;;;2.20;1.73;;;16.30;99.90;;;;;;5023601;28;20838;-68
2023/05/16 11:20:39;;;;;;;4.10;1.70;;;16.20;99.90;;;;;;5023396;28;20553;-67
2023/05/16 11:23:25;;;;;;;8.93;1.93;;;16.20;99.90;;;;;;5022006;28;20478;-68
2023/05/16 11:25:52;;;;;;;3.53;2.30;;;16.20;99.90;;;;;;5013168;28;20942;-68
2023/05/16 11:28:18;;;;;;;2.93;1.77;;;16.20;99.90;;;;;;5012573;28;20489;-67
2023/05/16 11:30:48;;;;;;;2.70;2.00;;;16.20;99.90;;;;;;5018070;28;21111;-67
2023/05/16 11:33:15;;;;;;;2.00;1.80;;;16.30;99.90;;;;;;5015856;28;20807;-67
2023/05/16 11:35:42;;;;;;;2.67;2.20;;;16.30;99.90;;;;;;5013652;28;20825;-66
2023/05/16 11:38:17;;;;;;;5.13;1.90;;;16.50;99.90;;;;;;5019151;28;21046;-67
2023/05/16 11:40:43;;;;;;;3.63;2.13;;;16.80;99.90;;;;;;5015414;28;20962;-67
2023/05/16 11:43:18;;;;;;;2.80;2.00;;;17.10;99.90;;;;;;5021292;28;20794;-67
2023/05/16 11:45:44;;;;;;;2.30;1.90;;;17.30;99.90;;;;;;5012028;28;21018;-67
2023/05/16 11:48:10;;;;;;;2.47;2.00;;;17.50;99.90;;;;;;5014780;28;20522;-67
2023/05/16 11:50:35;;;;;;;2.30;2.07;;;17.70;99.90;;;;;;5028001;28;20439;-67
2023/05/16 11:53:01;;;;;;;5.70;2.10;;;17.60;99.90;;;;;;5020629;28;20251;-67
2023/05/16 11:55:31;;;;;;;2.43;1.90;;;17.60;99.90;;;;;;5017051;28;20283;-67
2023/05/16 11:57:58;;;;;;;2.80;2.13;;;17.50;99.90;;;;;;5019317;28;20208;-67
2023/05/16 12:00:25;;;;;;;2.40;2.00;;;17.40;99.90;;;;;;5031810;28;20431;-66
2023/05/16 12:02:53;;;;;;;4.50;2.10;;;17.50;99.90;;;;;;5026843;28;21296;-67
2023/05/16 12:05:24;;;;;;;2.20;1.90;;;17.40;99.90;;;;;;5025210;28;20582;-67
2023/05/16 12:07:50;;;;;;;3.27;2.20;;;17.50;99.90;;;;;;5025986;28;20470;-67
2023/05/16 12:10:16;;;;;;;3.57;2.17;;;17.50;99.90;;;;;;5021898;28;20439;-67
2023/05/16 12:12:45;;;;;;;3.93;2.10;;;17.40;99.90;;;;;;5014044;28;20446;-67
2023/05/16 12:15:11;;;;;;;3.23;1.90;;;17.30;99.90;;;;;;5011276;28;20192;-68
2023/05/16 12:17:39;;;;;;;2.80;2.50;;;17.30;99.90;;;;;;5015694;28;20454;-67
2023/05/16 12:20:05;;;;;;;2.60;1.93;;;17.20;99.90;;;;;;5014194;28;21087;-67
2023/05/16 12:22:32;;;;;;;7.03;3.53;;;17.20;99.90;;;;;;5016695;28;20451;-67
2023/05/16 12:24:59;;;;;;;2.60;2.40;;;17.00;99.90;;;;;;5019388;28;20551;-67
2023/05/16 12:27:26;;;;;;;3.40;2.33;;;17.00;99.90;;;;;;5014753;28;20446;-68
2023/05/16 12:29:51;;;;;;;3.03;2.10;;;17.00;99.90;;;;;;5024213;28;20459;-68
2023/05/16 12:32:18;;;;;;;3.00;2.27;;;16.90;99.90;;;;;;5015627;28;20440;-68
2023/05/16 12:34:51;;;;;;;3.37;2.17;;;16.90;99.90;;;;;;5018048;28;20291;-68